Time;durP1;ratioP1;P1;durP2;ratioP2;P2;SDS_P1;SDS_P2;PMS_P1;PMS_P2;Temp;Humidity;BMP_temperature;BMP_pressure;BME280_temperature;BME280_humidity;BME280_pressure;Samples;Min_cycle;Max_cycle;Signal;HPM_P1;HPM_P2
2023/08/26 00:00:46;;;;;;;14.93;9.90;;;;;;;19.62;100.00;98366.16;5066742;28;20031;-72
2023/08/26 00:03:13;;;;;;;21.25;11.07;;;;;;;19.72;100.00;98397.47;5070940;28;20039;-72
2023/08/26 00:05:39;;;;;;;18.00;11.82;;;;;;;19.75;100.00;98394.19;5064022;28;20025;-70
2023/08/26 00:08:04;;;;;;;18.15;11.05;;;;;;;19.78;100.00;98410.09;5051694;28;20418;-70
2023/08/26 00:10:30;;;;;;;20.95;12.43;;;;;;;19.73;100.00;98410.94;5066002;28;20075;-70
2023/08/26 00:12:55;;;;;;;19.13;11.02;;;;;;;19.62;100.00;98404.59;5070539;28;20062;-70
2023/08/26 00:15:20;;;;;;;13.98;9.65;;;;;;;19.69;100.00;98409.81;5044669;28;20048;-70
2023/08/26 00:17:46;;;;;;;24.33;11.30;;;;;;;19.66;100.00;98410.34;5055203;28;20526;-70
2023/08/26 00:20:11;;;;;;;20.45;10.75;;;;;;;19.67;100.00;98414.75;5066399;28;20017;-70
2023/08/26 00:22:37;;;;;;;19.67;11.48;;;;;;;19.67;100.00;98409.28;5068288;28;20074;-70
2023/08/26 00:25:03;;;;;;;19.80;10.98;;;;;;;19.66;100.00;98394.72;5046843;28;20440;-70
2023/08/26 00:27:28;;;;;;;18.98;11.02;;;;;;;19.69;100.00;98393.34;5047716;28;20415;-70
2023/08/26 00:29:54;;;;;;;24.00;12.27;;;;;;;19.64;100.00;98405.13;5063512;28;20032;-70
2023/08/26 00:32:19;;;;;;;23.75;13.98;;;;;;;19.65;100.00;98405.97;5044761;28;20474;-70
2023/08/26 00:34:44;;;;;;;23.38;12.60;;;;;;;19.63;100.00;98399.91;5060040;28;20020;-72
2023/08/26 00:37:12;;;;;;;25.20;13.27;;;;;;;19.65;100.00;98400.47;5063072;28;20446;-73
2023/08/26 00:39:37;;;;;;;33.55;16.00;;;;;;;19.68;100.00;98405.44;5038988;28;20031;-73
2023/08/26 00:42:03;;;;;;;28.35;14.90;;;;;;;19.70;100.00;98403.22;5067029;28;20103;-72
2023/08/26 00:44:28;;;;;;;34.75;15.02;;;;;;;19.66;100.00;98393.88;5067981;28;20060;-72
2023/08/26 00:46:55;;;;;;;28.20;15.60;;;;;;;19.72;100.00;98428.50;5058127;28;20075;-72
2023/08/26 00:49:20;;;;;;;30.20;16.33;;;;;;;19.72;100.00;98435.91;5063681;28;20477;-73
2023/08/26 00:51:45;;;;;;;36.95;17.33;;;;;;;19.67;100.00;98387.31;5070991;28;20123;-71
2023/08/26 00:54:11;;;;;;;35.47;17.08;;;;;;;19.77;100.00;98413.97;5065674;28;20387;-71
2023/08/26 00:56:36;;;;;;;40.35;16.77;;;;;;;19.64;100.00;98409.78;5073218;28;20103;-72
2023/08/26 00:59:02;;;;;;;34.63;15.02;;;;;;;19.61;100.00;98419.38;5066405;28;20052;-72
2023/08/26 01:01:30;;;;;;;24.98;13.65;;;;;;;19.49;100.00;98425.13;5069127;28;20025;-71
2023/08/26 01:03:56;;;;;;;14.77;10.45;;;;;;;19.40;100.00;98424.00;5069284;28;20028;-72
2023/08/26 01:06:21;;;;;;;15.68;8.82;;;;;;;19.28;100.00;98423.41;5064967;28;20059;-72
2023/08/26 01:08:47;;;;;;;15.60;7.45;;;;;;;19.22;100.00;98428.06;5062016;28;20036;-72
2023/08/26 01:11:32;;;;;;;15.50;7.43;;;;;;;19.16;100.00;98422.84;5068573;28;20028;-72
2023/08/26 01:14:10;;;;;;;11.48;7.40;;;;;;;19.09;100.00;98422.25;5070821;28;20105;-71
2023/08/26 01:16:38;;;;;;;12.13;7.65;;;;;;;19.12;100.00;98433.50;5069152;28;20070;-71
2023/08/26 01:19:07;;;;;;;16.92;8.18;;;;;;;19.00;100.00;98425.50;5062223;28;20075;-71
2023/08/26 01:21:39;;;;;;;13.18;8.18;;;;;;;19.08;100.00;98439.81;5066441;28;20457;-71
2023/08/26 01:24:05;;;;;;;15.90;8.98;;;;;;;19.15;100.00;98445.84;5064002;28;20025;-71
2023/08/26 01:26:30;;;;;;;18.05;8.02;;;;;;;19.20;100.00;98434.91;5064492;28;20027;-71
2023/08/26 01:28:56;;;;;;;14.45;9.00;;;;;;;19.12;100.00;98428.00;5067636;28;20028;-71
2023/08/26 01:31:22;;;;;;;12.57;7.88;;;;;;;19.04;100.00;98440.31;5064996;28;20044;-72
2023/08/26 01:34:02;;;;;;;17.70;8.38;;;;;;;19.05;100.00;98450.22;5063028;28;20028;-72
2023/08/26 01:36:31;;;;;;;14.52;7.65;;;;;;;19.00;100.00;98436.47;5066634;28;20028;-70
2023/08/26 01:38:57;;;;;;;15.38;9.10;;;;;;;18.96;100.00;98418.91;5069242;28;20371;-72
2023/08/26 01:41:25;;;;;;;20.52;9.93;;;;;;;19.00;100.00;98424.69;5064457;28;20028;-72
2023/08/26 01:43:51;;;;;;;19.88;10.55;;;;;;;19.06;100.00;98426.34;5064231;28;20112;-72
2023/08/26 01:46:16;;;;;;;20.15;9.48;;;;;;;18.97;100.00;98420.56;5070700;28;20056;-72
2023/08/26 01:48:42;;;;;;;18.27;10.27;;;;;;;18.98;100.00;98455.09;5072795;28;20507;-71
2023/08/26 01:51:07;;;;;;;16.83;9.63;;;;;;;18.87;100.00;98461.63;5059023;28;20386;-72
2023/08/26 01:53:33;;;;;;;15.55;9.07;;;;;;;18.94;100.00;98483.31;5058755;28;20031;-72
2023/08/26 01:55:58;;;;;;;21.73;9.30;;;;;;;18.92;100.00;98478.13;5070272;28;20028;-71
2023/08/26 01:58:23;;;;;;;15.75;9.05;;;;;;;18.81;100.00;98471.75;5064540;28;20036;-72
2023/08/26 02:00:49;;;;;;;13.00;8.90;;;;;;;18.79;100.00;98460.22;5064161;28;20036;-72
2023/08/26 02:03:14;;;;;;;18.17;9.13;;;;;;;18.74;100.00;98442.91;5069604;28;20113;-72
2023/08/26 02:05:39;;;;;;;16.20;8.90;;;;;;;18.74;100.00;98443.72;5039715;28;20028;-72
2023/08/26 02:08:05;;;;;;;14.23;8.63;;;;;;;18.78;100.00;98444.03;5057312;28;20024;-72
2023/08/26 02:10:30;;;;;;;17.13;8.55;;;;;;;18.84;100.00;98445.72;5068415;28;20031;-72
2023/08/26 02:12:55;;;;;;;12.40;8.07;;;;;;;18.84;100.00;98456.69;5058466;28;20071;-72
2023/08/26 02:15:21;;;;;;;17.25;9.25;;;;;;;18.87;100.00;98469.03;5065160;28;20016;-72
2023/08/26 02:17:46;;;;;;;14.77;8.48;;;;;;;18.75;100.00;98456.34;5072791;28;20028;-72
2023/08/26 02:20:12;;;;;;;12.60;8.23;;;;;;;18.82;100.00;98472.56;5039240;28;20108;-72
2023/08/26 02:22:37;;;;;;;14.63;8.95;;;;;;;18.80;100.00;98466.53;5067990;28;20020;-72
2023/08/26 02:25:03;;;;;;;18.13;8.82;;;;;;;18.79;100.00;98467.63;5062851;28;20059;-72
2023/08/26 02:27:28;;;;;;;16.38;9.48;;;;;;;18.81;100.00;98479.97;5070487;28;20024;-72
2023/08/26 02:29:53;;;;;;;16.85;8.95;;;;;;;18.81;100.00;98479.13;5065513;28;20037;-72
2023/08/26 02:32:19;;;;;;;18.55;9.23;;;;;;;18.84;100.00;98481.34;5068635;28;20363;-72
2023/08/26 02:34:44;;;;;;;12.85;7.93;;;;;;;18.85;100.00;98479.44;5070563;28;20058;-72
2023/08/26 02:37:09;;;;;;;19.20;9.50;;;;;;;18.82;100.00;98476.13;5067485;28;20021;-72
2023/08/26 02:39:34;;;;;;;13.32;8.70;;;;;;;18.71;100.00;98454.41;5051077;28;20024;-72
2023/08/26 02:42:00;;;;;;;17.55;8.23;;;;;;;18.71;100.00;98460.69;5068389;28;20024;-72
2023/08/26 02:44:25;;;;;;;13.40;8.07;;;;;;;18.72;100.00;98476.03;5067845;28;20032;-72
2023/08/26 02:46:50;;;;;;;11.60;8.32;;;;;;;18.75;100.00;98482.94;5067759;28;20028;-72
2023/08/26 02:49:16;;;;;;;14.43;7.75;;;;;;;18.72;100.00;98477.97;5072838;28;20070;-73
2023/08/26 02:51:41;;;;;;;15.00;8.27;;;;;;;18.70;100.00;98480.13;5075319;28;20066;-72
2023/08/26 02:54:06;;;;;;;15.05;7.43;;;;;;;18.66;100.00;98468.88;5061467;28;20032;-72
2023/08/26 02:56:31;;;;;;;12.63;7.57;;;;;;;18.63;100.00;98483.13;5063956;28;20024;-72
2023/08/26 02:58:57;;;;;;;13.43;7.45;;;;;;;18.59;100.00;98482.78;5066992;28;20028;-72
2023/08/26 03:01:24;;;;;;;16.58;7.78;;;;;;;18.59;100.00;98477.31;5064947;28;20036;-72
2023/08/26 03:03:49;;;;;;;13.32;8.63;;;;;;;18.56;100.00;98485.25;5061413;28;20115;-72
2023/08/26 03:06:14;;;;;;;13.48;7.30;;;;;;;18.52;100.00;98490.44;5073071;28;20026;-72
2023/08/26 03:08:40;;;;;;;14.25;7.38;;;;;;;18.53;100.00;98494.00;5051861;28;20032;-72
2023/08/26 03:11:07;;;;;;;16.77;7.60;;;;;;;18.55;100.00;98511.81;5067648;28;20410;-72
2023/08/26 03:13:33;;;;;;;19.10;8.60;;;;;;;18.53;100.00;98486.59;5063974;28;20028;-72
2023/08/26 03:16:06;;;;;;;16.65;8.80;;;;;;;18.54;100.00;98507.41;5066211;28;20108;-73
2023/08/26 03:18:32;;;;;;;14.02;8.10;;;;;;;18.52;100.00;98506.88;5069455;28;20025;-70
2023/08/26 03:21:02;;;;;;;16.17;7.65;;;;;;;18.52;100.00;98490.44;5063269;28;20721;-70
2023/08/26 03:23:28;;;;;;;16.10;7.60;;;;;;;18.50;100.00;98476.16;5056089;28;20743;-70
2023/08/26 03:25:55;;;;;;;14.32;8.57;;;;;;;18.62;100.00;98501.44;5076535;28;20028;-73
2023/08/26 03:28:20;;;;;;;12.35;7.25;;;;;;;18.58;100.00;98494.84;5062208;28;20159;-70
2023/08/26 03:30:45;;;;;;;15.57;8.00;;;;;;;18.62;100.00;98523.38;5043088;28;20112;-72
2023/08/26 03:33:11;;;;;;;14.13;8.10;;;;;;;18.57;100.00;98520.59;5066678;28;20025;-70
2023/08/26 03:35:38;;;;;;;15.30;7.78;;;;;;;18.51;100.00;98513.44;5070133;28;20036;-70
2023/08/26 03:38:04;;;;;;;20.48;8.00;;;;;;;18.50;100.00;98503.56;5074128;28;20024;-73
2023/08/26 03:40:29;;;;;;;19.52;8.30;;;;;;;18.51;100.00;98501.66;5073327;28;20715;-70
2023/08/26 03:42:54;;;;;;;13.70;7.72;;;;;;;18.37;100.00;98487.59;5068321;28;20035;-70
2023/08/26 03:45:19;;;;;;;13.57;7.82;;;;;;;18.47;100.00;98509.56;5067049;28;20081;-70
2023/08/26 03:47:45;;;;;;;15.07;8.00;;;;;;;18.42;100.00;98505.94;5062853;28;20029;-70
2023/08/26 03:50:10;;;;;;;13.38;8.38;;;;;;;18.31;100.00;98485.88;5045062;28;20105;-72
2023/08/26 03:52:36;;;;;;;17.83;8.10;;;;;;;18.38;100.00;98502.91;5048995;28;20024;-72
2023/08/26 03:55:04;;;;;;;18.00;9.20;;;;;;;18.36;100.00;98502.34;5059916;28;20024;-73
2023/08/26 03:57:29;;;;;;;12.73;7.80;;;;;;;18.37;100.00;98507.56;5065851;28;20020;-71
2023/08/26 03:59:54;;;;;;;18.58;8.93;;;;;;;18.32;100.00;98513.00;5069995;28;20033;-72
2023/08/26 04:02:20;;;;;;;19.17;8.77;;;;;;;18.30;100.00;98514.34;5063357;28;20089;-73
2023/08/26 04:04:45;;;;;;;15.80;8.18;;;;;;;18.31;100.00;98516.00;5070046;28;20024;-72
2023/08/26 04:07:10;;;;;;;20.63;9.32;;;;;;;18.28;100.00;98516.53;5066425;28;20085;-71
2023/08/26 04:09:36;;;;;;;21.80;10.02;;;;;;;18.25;100.00;98506.09;5071507;28;20099;-82
2023/08/26 04:12:02;;;;;;;14.48;8.93;;;;;;;18.26;100.00;98499.50;5055412;28;20013;-78
2023/08/26 04:14:28;;;;;;;16.27;9.07;;;;;;;18.28;100.00;98495.44;5056108;28;20465;-72
2023/08/26 04:16:53;;;;;;;17.90;8.70;;;;;;;18.32;100.00;98512.19;5060417;28;20043;-76
2023/08/26 04:19:18;;;;;;;16.52;9.27;;;;;;;18.26;100.00;98525.00;5047354;28;20494;-78
2023/08/26 04:21:44;;;;;;;16.88;7.88;;;;;;;18.23;100.00;98525.50;5054508;28;20063;-79
2023/08/26 04:24:09;;;;;;;15.35;8.50;;;;;;;18.23;100.00;98525.50;5054352;28;20035;-76
2023/08/26 04:26:35;;;;;;;13.80;8.02;;;;;;;18.29;100.00;98535.44;5048014;28;20115;-77
2023/08/26 04:29:00;;;;;;;15.75;7.97;;;;;;;18.26;100.00;98525.00;5043175;28;20020;-76
2023/08/26 04:31:25;;;;;;;15.05;8.73;;;;;;;18.41;100.00;98546.22;5051265;28;20074;-78
2023/08/26 04:33:52;;;;;;;15.13;8.10;;;;;;;18.27;100.00;98539.53;5050109;28;20023;-78
2023/08/26 04:36:17;;;;;;;14.20;8.05;;;;;;;18.32;100.00;98545.88;5061163;28;20095;-80
2023/08/26 04:38:43;;;;;;;20.08;8.85;;;;;;;18.28;100.00;98530.22;5057384;28;20064;-79
2023/08/26 04:41:09;;;;;;;13.90;7.70;;;;;;;18.31;100.00;98544.22;5041939;28;20025;-80
2023/08/26 04:43:35;;;;;;;12.88;7.63;;;;;;;18.32;100.00;98536.84;5072098;28;20504;-80
2023/08/26 04:46:00;;;;;;;15.27;7.78;;;;;;;18.22;100.00;98544.97;5050940;28;20115;-80
2023/08/26 04:48:28;;;;;;;12.43;7.72;;;;;;;18.27;100.00;98567.72;5066231;28;20028;-80
2023/08/26 04:50:53;;;;;;;14.32;6.90;;;;;;;18.22;100.00;98570.41;5043708;28;20042;-79
2023/08/26 04:53:19;;;;;;;13.27;7.25;;;;;;;18.26;100.00;98568.84;5056069;28;20087;-81
2023/08/26 04:55:48;;;;;;;14.88;6.90;;;;;;;18.13;100.00;98561.00;5045920;28;20025;-79
2023/08/26 04:58:14;;;;;;;14.32;7.03;;;;;;;18.20;100.00;98579.97;5055260;28;20016;-79
2023/08/26 05:00:44;;;;;;;10.25;6.82;;;;;;;18.10;100.00;98572.47;5072409;28;20119;-78
2023/08/26 05:03:09;;;;;;;12.18;6.63;;;;;;;18.21;100.00;98581.63;5045799;28;20032;-78
2023/08/26 05:05:35;;;;;;;11.68;6.38;;;;;;;18.00;100.00;98573.22;5065118;28;20025;-80
2023/08/26 05:08:03;;;;;;;9.88;6.20;;;;;;;18.18;100.00;98586.56;5074200;28;20021;-83
2023/08/26 05:10:28;;;;;;;11.80;6.73;;;;;;;18.17;100.00;98593.09;5051737;28;20020;-73
2023/08/26 05:12:54;;;;;;;15.00;6.88;;;;;;;18.13;100.00;98570.06;5064497;28;20032;-73
2023/08/26 05:15:19;;;;;;;13.35;6.80;;;;;;;18.15;100.00;98595.25;5058779;28;20055;-71
2023/08/26 05:17:44;;;;;;;14.02;6.45;;;;;;;18.15;100.00;98594.44;5056448;28;20029;-71
2023/08/26 05:20:10;;;;;;;10.07;6.50;;;;;;;18.15;100.00;98597.16;5059443;28;20025;-71
2023/08/26 05:22:35;;;;;;;12.50;5.90;;;;;;;18.18;100.00;98602.97;5053229;28;20501;-71
2023/08/26 05:25:00;;;;;;;9.77;6.72;;;;;;;18.20;100.00;98601.88;5039673;28;20025;-71
2023/08/26 05:27:27;;;;;;;13.75;7.22;;;;;;;18.16;100.00;98585.97;5056177;28;20040;-71
2023/08/26 05:29:53;;;;;;;11.75;6.50;;;;;;;18.22;100.00;98592.31;5057528;28;20024;-71
2023/08/26 05:32:18;;;;;;;14.50;6.93;;;;;;;18.35;100.00;98593.81;5060444;28;20048;-71
2023/08/26 05:34:43;;;;;;;12.30;6.13;;;;;;;18.39;100.00;98595.78;5066043;28;20070;-71
2023/08/26 05:37:09;;;;;;;14.25;6.50;;;;;;;18.52;100.00;98594.53;5055963;28;20103;-73
2023/08/26 05:39:34;;;;;;;12.23;6.30;;;;;;;18.55;100.00;98596.75;5056678;28;20379;-82
2023/08/26 05:41:59;;;;;;;13.27;6.35;;;;;;;18.62;100.00;98582.81;5049770;28;20528;-81
2023/08/26 05:44:25;;;;;;;13.40;5.07;;;;;;;18.51;100.00;98573.69;5052100;28;20113;-80
2023/08/26 05:46:50;;;;;;;12.20;5.82;;;;;;;18.44;100.00;98567.59;5052544;28;20034;-72
2023/08/26 05:49:15;;;;;;;10.23;5.30;;;;;;;18.73;100.00;98572.78;5063565;23;20057;-73
2023/08/26 05:51:40;;;;;;;12.32;6.10;;;;;;;19.53;100.00;98575.50;5029454;28;20060;-73
2023/08/26 05:54:06;;;;;;;10.43;5.38;;;;;;;19.96;100.00;98548.78;5018618;28;20032;-72
2023/08/26 05:56:31;;;;;;;10.02;4.90;;;;;;;20.37;100.00;98533.19;5021946;28;20018;-72
2023/08/26 05:58:57;;;;;;;8.32;3.97;;;;;;;20.59;100.00;98524.69;5033694;28;20108;-71
2023/08/26 06:01:22;;;;;;;8.43;4.07;;;;;;;20.05;100.00;98533.44;5025710;28;20049;-72
2023/08/26 06:03:47;;;;;;;7.55;4.97;;;;;;;19.76;100.00;98546.81;5026223;28;20029;-72
2023/08/26 06:06:12;;;;;;;11.48;4.50;;;;;;;19.58;100.00;98550.84;5027094;28;20090;-71
2023/08/26 06:08:38;;;;;;;7.55;4.22;;;;;;;19.54;100.00;98571.66;5027989;28;20025;-72
2023/08/26 06:11:03;;;;;;;10.32;4.68;;;;;;;19.60;100.00;98576.09;5024125;28;20501;-72
2023/08/26 06:13:28;;;;;;;12.40;4.63;;;;;;;19.63;100.00;98575.56;5034149;28;20044;-72
2023/08/26 06:15:58;;;;;;;12.85;4.60;;;;;;;20.63;100.00;98572.53;5028746;28;20574;-72
2023/08/26 06:18:23;;;;;;;14.20;4.20;;;;;;;22.79;100.00;98522.88;5022421;28;20108;-68
2023/08/26 06:20:50;;;;;;;9.32;3.58;;;;;;;24.88;100.00;98497.94;5027257;28;20578;-70
2023/08/26 06:23:16;;;;;;;12.48;3.67;;;;;;;26.79;100.00;98474.09;5030444;28;20025;-72
2023/08/26 06:25:55;;;;;;;7.22;3.22;;;;;;;26.79;100.00;98479.63;5014232;28;20549;-72
2023/08/26 06:28:21;;;;;;;8.55;3.28;;;;;;;25.13;100.00;98479.22;5022238;28;20061;-73
2023/08/26 06:30:47;;;;;;;6.40;2.83;;;;;;;23.71;100.00;98486.78;5014549;28;20537;-70
2023/08/26 06:33:13;;;;;;;4.75;2.90;;;;;;;22.88;100.00;98496.31;5021117;28;20037;-77
2023/08/26 06:35:39;;;;;;;7.43;3.28;;;;;;;21.53;100.00;98496.72;5025936;28;20014;-73
2023/08/26 06:38:04;;;;;;;6.28;3.28;;;;;;;21.37;100.00;98509.69;5031777;28;20030;-74
2023/08/26 06:40:33;;;;;;;8.75;3.45;;;;;;;21.52;100.00;98498.66;5025735;28;20076;-74
2023/08/26 06:42:58;;;;;;;;;;;;;;;22.09;100.00;98499.16;5022402;28;20080;-75
2023/08/26 06:45:24;;;;;;;9.45;3.47;;;;;;;22.95;100.00;98491.25;5024901;28;19921;-73
2023/08/26 06:47:49;;;;;;;7.72;3.83;;;;;;;23.70;100.00;98474.06;5026493;28;20539;-74
2023/08/26 06:50:14;;;;;;;7.57;2.70;;;;;;;25.95;100.00;98478.34;5020815;28;20360;-75
2023/08/26 06:52:40;;;;;;;8.82;2.30;;;;;;;28.73;100.00;98472.97;5024573;28;20030;-76
2023/08/26 06:55:08;;;;;;;4.38;2.42;;;;;;;28.21;100.00;98480.56;5031953;28;20079;-76
2023/08/26 06:57:36;;;;;;;8.95;2.58;;;;;;;26.65;100.00;98490.00;5032976;28;20447;-72
2023/08/26 07:00:03;;;;;;;8.45;2.97;;;;;;;25.04;100.00;98484.63;5023661;28;20068;-75
2023/08/26 07:02:29;;;;;;;4.32;2.50;;;;;;;25.04;100.00;98481.06;5027787;28;20108;-74
2023/08/26 07:04:54;;;;;;;4.25;2.35;;;;;;;24.89;100.00;98471.13;5025622;28;20053;-79
2023/08/26 07:07:19;;;;;;;8.15;2.40;;;;;;;24.12;100.00;98477.09;5026424;28;21057;-74
2023/08/26 07:09:45;;;;;;;7.63;3.00;;;;;;;23.33;100.00;98478.44;5023643;28;20029;-78
2023/08/26 07:12:12;;;;;;;6.32;2.95;;;;;;;23.08;100.00;98470.44;5019563;28;20111;-71
2023/08/26 07:14:38;;;;;;;6.10;2.50;;;;;;;23.34;100.00;98477.31;5028801;28;20049;-71
2023/08/26 07:17:03;;;;;;;8.43;2.70;;;;;;;23.44;100.00;98475.53;5021023;28;20510;-72
2023/08/26 07:19:28;;;;;;;8.57;2.70;;;;;;;23.61;100.00;98464.81;5021254;28;20372;-69
2023/08/26 07:21:53;;;;;;;9.48;3.05;;;;;;;25.19;100.00;98460.59;5029653;28;20442;-75
2023/08/26 07:24:19;;;;;;;8.82;2.38;;;;;;;27.99;100.00;98460.09;5027366;28;20026;-75
2023/08/26 07:26:45;;;;;;;8.60;2.42;;;;;;;28.51;100.00;98462.88;5025037;28;20532;-76
2023/08/26 07:29:10;;;;;;;6.13;2.45;;;;;;;28.12;100.00;98464.69;5026571;28;20044;-77
2023/08/26 07:31:35;;;;;;;11.60;2.42;;;;;;;28.46;100.00;98474.19;5026305;28;20033;-72
2023/08/26 07:34:00;;;;;;;7.88;2.90;;;;;;;26.88;100.00;98488.84;5021090;28;20018;-70
2023/08/26 07:36:26;;;;;;;10.63;2.80;;;;;;;26.06;100.00;98494.75;5018362;28;20476;-75
2023/08/26 07:38:51;;;;;;;8.05;2.60;;;;;;;24.89;100.00;98505.13;5020991;28;20018;-75
2023/08/26 07:41:16;;;;;;;6.15;2.53;;;;;;;24.07;100.00;98489.03;5021594;28;20112;-74
2023/08/26 07:43:42;;;;;;;4.80;2.90;;;;;;;23.73;100.00;98498.38;5019940;28;20067;-74
2023/08/26 07:46:07;;;;;;;7.88;3.08;;;;;;;23.61;100.00;98500.72;5013440;28;20061;-73
2023/08/26 07:48:32;;;;;;;5.93;3.55;;;;;;;23.54;100.00;98491.97;5031083;28;20029;-75
2023/08/26 07:50:58;;;;;;;5.55;3.30;;;;;;;23.57;100.00;98488.63;5028890;28;20095;-75
2023/08/26 07:53:23;;;;;;;7.30;3.00;;;;;;;23.46;100.00;98476.06;5026894;28;20061;-75
2023/08/26 07:55:48;;;;;;;6.85;2.95;;;;;;;23.21;100.00;98469.72;5028246;28;20101;-75
2023/08/26 07:58:14;;;;;;;4.68;2.88;;;;;;;23.35;100.00;98467.91;5026519;28;20025;-79
2023/08/26 08:00:39;;;;;;;7.38;3.45;;;;;;;23.20;100.00;98451.53;5016988;28;20026;-78
2023/08/26 08:03:05;;;;;;;8.43;2.95;;;;;;;23.50;100.00;98464.16;5023736;28;20171;-76
2023/08/26 08:05:30;;;;;;;8.30;3.15;;;;;;;23.50;100.00;98466.06;5018705;28;20026;-70
2023/08/26 08:07:55;;;;;;;6.68;3.47;;;;;;;23.76;100.00;98477.63;5022365;28;20030;-72
2023/08/26 08:10:21;;;;;;;7.38;2.88;;;;;;;23.77;100.00;98471.81;5024935;28;20030;-72
2023/08/26 08:12:46;;;;;;;5.07;2.83;;;;;;;23.83;100.00;98465.06;5017414;28;20029;-71
2023/08/26 08:15:11;;;;;;;7.38;2.95;;;;;;;23.94;100.00;98453.88;5024045;28;20022;-72
2023/08/26 08:17:37;;;;;;;8.00;2.53;;;;;;;24.32;100.00;98459.38;5025206;28;20036;-73
2023/08/26 08:20:03;;;;;;;6.60;2.13;;;;;;;24.43;100.00;98456.13;5023118;28;20071;-72
2023/08/26 08:22:39;;;;;;;5.28;2.10;;;;;;;24.72;100.00;98460.63;5029269;28;20025;-72
2023/08/26 08:25:06;;;;;;;4.57;1.92;;;;;;;25.15;100.00;98471.41;5028225;28;20112;-72
2023/08/26 08:27:31;;;;;;;4.38;2.00;;;;;;;25.64;100.00;98472.66;5029470;28;20036;-73
2023/08/26 08:29:58;;;;;;;6.53;2.05;;;;;;;26.42;100.00;98473.34;5020563;28;20029;-72
2023/08/26 08:32:24;;;;;;;5.47;2.15;;;;;;;27.65;100.00;98458.91;5027477;28;20025;-72
2023/08/26 08:34:49;;;;;;;6.32;2.53;;;;;;;27.86;100.00;98449.97;5028784;28;20359;-73
2023/08/26 08:37:15;;;;;;;7.00;2.08;;;;;;;28.42;100.00;98462.84;5026588;28;20026;-72
2023/08/26 08:39:40;;;;;;;6.78;2.20;;;;;;;29.22;100.00;98465.13;5018073;28;20022;-73
2023/08/26 08:42:09;;;;;;;4.32;1.85;;;;;;;29.25;100.00;98472.00;5028215;28;20034;-72
2023/08/26 08:44:40;;;;;;;5.03;1.75;;;;;;;28.63;100.00;98463.00;5024771;28;20025;-72
2023/08/26 08:47:05;;;;;;;8.10;2.30;;;;;;;28.02;100.00;98453.06;5018973;28;20135;-72
2023/08/26 08:49:33;;;;;;;6.88;2.30;;;;;;;27.67;100.00;98466.94;5014506;28;20490;-73
2023/08/26 08:52:00;;;;;;;3.03;1.92;;;;;;;27.28;100.00;98469.44;5025953;28;20028;-73
2023/08/26 08:54:26;;;;;;;4.35;1.67;;;;;;;27.17;100.00;98457.00;5022470;28;20021;-72
2023/08/26 08:56:52;;;;;;;6.55;1.88;;;;;;;26.93;100.00;98464.84;5027816;28;21480;-72
2023/08/26 08:59:19;;;;;;;2.92;1.70;;;;;;;26.97;100.00;98472.22;5019263;28;20109;-72
2023/08/26 09:01:45;;;;;;;6.03;1.67;;;;;;;26.73;100.00;98480.09;5024584;28;20040;-72
2023/08/26 09:04:11;;;;;;;3.58;1.20;;;;;;;26.33;100.00;98471.63;5029121;28;20026;-72
2023/08/26 09:06:37;;;;;;;4.95;1.35;;;;;;;25.90;100.00;98472.91;5021971;28;20072;-72
2023/08/26 09:09:10;;;;;;;3.78;1.20;;;;;;;25.89;100.00;98490.69;5014133;28;20480;-72
2023/08/26 09:11:36;;;;;;;7.07;1.60;;;;;;;25.70;100.00;98482.50;5029634;28;20052;-72
2023/08/26 09:14:01;;;;;;;4.63;1.42;;;;;;;26.51;100.00;98473.38;5026478;28;20022;-72
2023/08/26 09:16:39;;;;;;;2.58;1.20;;;;;;;27.72;100.00;98472.31;5025326;28;20057;-72
2023/08/26 09:19:12;;;;;;;3.83;1.27;;;;;;;29.15;82.41;98477.94;5022620;28;20017;-72
2023/08/26 09:21:42;;;;;;;4.85;1.23;;;;;;;29.23;88.61;98477.91;5030279;28;20640;-72
2023/08/26 09:24:14;;;;;;;3.75;1.30;;;;;;;28.95;79.72;98465.53;5020884;28;20156;-73
2023/08/26 09:26:41;;;;;;;4.10;1.35;;;;;;;29.15;85.81;98470.41;5019257;28;20101;-73
2023/08/26 09:29:18;;;;;;;5.65;1.27;;;;;;;28.74;77.34;98468.22;5028159;28;20037;-73
2023/08/26 09:31:48;;;;;;;3.78;1.38;;;;;;;28.18;78.32;98468.94;5029187;28;20026;-72
2023/08/26 09:34:23;;;;;;;3.97;1.40;;;;;;;27.54;88.51;98457.56;5032779;28;20029;-72
2023/08/26 09:36:49;;;;;;;4.30;1.35;;;;;;;26.93;90.35;98468.44;5023003;28;20502;-71
2023/08/26 09:39:15;;;;;;;4.75;1.13;;;;;;;26.94;97.33;98463.72;5025669;28;20026;-71
2023/08/26 09:41:46;;;;;;;4.57;1.40;;;;;;;26.62;97.29;98468.47;5021215;28;20026;-72
2023/08/26 09:44:17;;;;;;;5.45;1.48;;;;;;;26.48;100.00;98462.94;5026697;28;20109;-73
2023/08/26 09:46:44;;;;;;;2.03;1.17;;;;;;;25.89;100.00;98464.94;5027510;28;20055;-73
2023/08/26 09:49:13;;;;;;;2.55;1.13;;;;;;;25.32;100.00;98465.31;5018496;28;20033;-73
2023/08/26 09:51:46;;;;;;;2.28;1.15;;;;;;;25.00;100.00;98452.38;5027655;28;20061;-72
2023/08/26 09:54:14;;;;;;;5.25;1.17;;;;;;;24.86;100.00;98475.31;5031087;28;20033;-73
2023/08/26 09:56:40;;;;;;;3.15;1.58;;;;;;;24.71;100.00;98468.09;5030464;28;20080;-73
2023/08/26 09:59:06;;;;;;;4.75;1.20;;;;;;;24.34;100.00;98465.41;5032646;28;20042;-72
2023/08/26 10:01:33;;;;;;;3.03;1.50;;;;;;;24.21;100.00;98450.44;5024915;28;20025;-72
2023/08/26 10:04:09;;;;;;;4.38;1.30;;;;;;;24.17;100.00;98446.63;5028819;28;20037;-73
2023/08/26 10:06:57;;;;;;;4.25;1.38;;;;;;;24.26;100.00;98469.66;5029300;28;20430;-72
2023/08/26 10:09:52;;;;;;;5.75;1.38;;;;;;;24.09;100.00;98448.13;5021599;28;20033;-73
2023/08/26 10:12:28;;;;;;;2.88;1.30;;;;;;;24.32;100.00;98451.06;5026153;28;20026;-73
2023/08/26 10:14:56;;;;;;;4.75;1.20;;;;;;;24.85;100.00;98442.41;5029062;28;20497;-73
2023/08/26 10:17:23;;;;;;;4.65;1.23;;;;;;;25.27;100.00;98437.72;5032284;28;20033;-73
2023/08/26 10:19:50;;;;;;;2.67;1.30;;;;;;;25.74;100.00;98441.13;5017175;28;20053;-72
2023/08/26 10:22:15;;;;;;;5.95;1.30;;;;;;;26.44;100.00;98443.34;5028149;28;20031;-72
2023/08/26 10:24:40;;;;;;;3.50;1.30;;;;;;;26.91;100.00;98444.91;5014936;28;20030;-73
2023/08/26 10:27:07;;;;;;;2.88;1.05;;;;;;;27.45;100.00;98451.97;5020603;28;20057;-72
2023/08/26 10:29:35;;;;;;;4.32;1.92;;;;;;;27.76;97.10;98451.06;5016753;28;20037;-72
2023/08/26 10:32:18;;;;;;;3.33;1.40;;;;;;;27.89;93.97;98427.88;5023727;28;20053;-72
2023/08/26 10:34:54;;;;;;;5.95;1.75;;;;;;;27.92;85.36;98431.97;5021391;28;20472;-73
2023/08/26 10:37:26;;;;;;;8.20;1.67;;;;;;;29.99;82.07;98416.78;5028041;28;20033;-73
2023/08/26 10:39:52;;;;;;;3.28;1.20;;;;;;;33.07;68.53;98427.34;5030004;28;20025;-73
2023/08/26 10:42:19;;;;;;;2.22;1.20;;;;;;;33.42;66.31;98442.59;5031259;28;20427;-73
2023/08/26 10:44:47;;;;;;;3.53;1.30;;;;;;;32.20;64.07;98436.53;5024722;28;20018;-72
2023/08/26 10:47:33;;;;;;;3.78;1.23;;;;;;;31.07;71.68;98424.22;5021262;28;20119;-72
2023/08/26 10:50:22;;;;;;;2.95;1.42;;;;;;;30.44;73.41;98427.22;5021042;28;20029;-73
2023/08/26 10:52:56;;;;;;;;;;;;;;;30.15;70.13;98421.38;5028960;28;20111;-73
2023/08/26 10:55:33;;;;;;;3.13;1.60;;;;;;;29.40;73.96;98431.63;5022992;28;19914;-73
2023/08/26 10:58:08;;;;;;;2.67;1.30;;;;;;;29.05;84.64;98440.94;5017857;28;20032;-74
2023/08/26 11:00:34;;;;;;;4.78;1.48;;;;;;;28.32;93.27;98429.81;5021846;28;20040;-73
2023/08/26 11:03:03;;;;;;;2.30;1.30;;;;;;;27.69;87.64;98439.59;5024258;28;20104;-73
2023/08/26 11:05:28;;;;;;;3.92;1.38;;;;;;;26.24;100.00;98443.84;5023327;28;20029;-73
2023/08/26 11:07:56;;;;;;;4.13;1.35;;;;;;;26.39;100.00;98439.88;5022375;28;20026;-72
2023/08/26 11:10:29;;;;;;;7.20;1.60;;;;;;;26.29;100.00;98443.72;5022695;28;20025;-71
2023/08/26 11:12:55;;;;;;;4.03;1.77;;;;;;;26.16;100.00;98444.59;5017390;28;20034;-72
2023/08/26 11:15:21;;;;;;;6.88;1.48;;;;;;;26.09;100.00;98422.03;5020795;28;20024;-72
2023/08/26 11:17:48;;;;;;;6.22;1.38;;;;;;;26.96;100.00;98436.44;5024940;28;20108;-72
2023/08/26 11:20:18;;;;;;;9.95;1.80;;;;;;;26.91;100.00;98419.91;5027962;28;20018;-72